Time;durP1;ratioP1;P1;durP2;ratioP2;P2;SDS_P1;SDS_P2;PMS_P1;PMS_P2;Temp;Humidity;BMP_temperature;BMP_pressure;BME280_temperature;BME280_humidity;BME280_pressure;Samples;Min_cycle;Max_cycle;Signal;HPM_P1;HPM_P2
2021/10/08 00:00:08;;;;;;;5.23;4.73;;;;;;;;;;4999135;28;25065;-73
2021/10/08 00:02:34;;;;;;;4.00;3.70;;;;;;;;;;4999518;28;25144;-73
2021/10/08 00:04:59;;;;;;;4.70;4.30;;;;;;;;;;4999773;28;25115;-73
2021/10/08 00:07:24;;;;;;;4.10;3.80;;;;;;;;;;5000019;28;25049;-73
2021/10/08 00:09:49;;;;;;;4.50;4.10;;;;;;;;;;4995697;28;25065;-74
2021/10/08 00:12:14;;;;;;;4.47;4.07;;;;;;;;;;4995572;28;25070;-73
2021/10/08 00:14:40;;;;;;;4.10;3.80;;;;;;;;;;5013748;28;25085;-73
2021/10/08 00:17:05;;;;;;;3.87;3.57;;;;;;;;;;4995846;28;25126;-73
2021/10/08 00:19:30;;;;;;;4.43;4.13;;;;;;;;;;4998359;28;25080;-73
2021/10/08 00:21:56;;;;;;;4.50;4.20;;;;;;;;;;5001761;28;25127;-73
2021/10/08 00:24:21;;;;;;;4.00;3.60;;;;;;;;;;4999683;28;25069;-73
2021/10/08 00:26:46;;;;;;;3.67;3.37;;;;;;;;;;5001708;28;25068;-73
2021/10/08 00:29:11;;;;;;;3.13;2.93;;;;;;;;;;4997063;28;25109;-73
2021/10/08 00:31:37;;;;;;;4.90;4.50;;;;;;;;;;5001708;28;25076;-73
2021/10/08 00:34:03;;;;;;;4.07;3.70;;;;;;;;;;4996531;28;25074;-73
2021/10/08 00:36:28;;;;;;;3.97;3.67;;;;;;;;;;4998034;28;25080;-73
2021/10/08 00:38:53;;;;;;;4.17;3.87;;;;;;;;;;5000606;28;25059;-74
2021/10/08 00:41:22;;;;;;;3.27;3.03;;;;;;;;;;5001001;28;25062;-74
2021/10/08 00:43:47;;;;;;;3.20;3.00;;;;;;;;;;5001781;28;25123;-73
2021/10/08 00:46:12;;;;;;;2.73;2.53;;;;;;;;;;4993021;28;25111;-73
2021/10/08 00:48:38;;;;;;;3.50;3.30;;;;;;;;;;4995998;28;25058;-74
2021/10/08 00:51:03;;;;;;;3.23;2.93;;;;;;;;;;4996283;28;25058;-73
2021/10/08 00:53:28;;;;;;;3.07;2.87;;;;;;;;;;4998245;28;25054;-73
2021/10/08 00:55:54;;;;;;;3.10;2.90;;;;;;;;;;4999875;28;25051;-73
2021/10/08 00:58:21;;;;;;;2.90;2.70;;;;;;;;;;4998255;28;25139;-73
2021/10/08 01:00:47;;;;;;;2.30;2.20;;;;;;;;;;4998035;28;25111;-73
2021/10/08 01:03:13;;;;;;;3.07;2.87;;;;;;;;;;4995424;28;25187;-73
2021/10/08 01:05:38;;;;;;;3.87;3.57;;;;;;;;;;4993165;28;20447;-73
2021/10/08 01:08:04;;;;;;;3.53;3.13;;;;;;;;;;4996987;28;20490;-73
2021/10/08 01:10:30;;;;;;;3.83;3.53;;;;;;;;;;4994516;28;20259;-73
2021/10/08 01:12:55;;;;;;;3.57;3.27;;;;;;;;;;4995896;28;20601;-73
2021/10/08 01:15:20;;;;;;;3.63;3.33;;;;;;;;;;4994016;28;20184;-73
2021/10/08 01:17:51;;;;;;;3.43;3.23;;;;;;;;;;4995225;28;20206;-74
2021/10/08 01:20:17;;;;;;;3.50;3.20;;;;;;;;;;4993121;28;20241;-73
2021/10/08 01:22:42;;;;;;;3.50;3.20;;;;;;;;;;5000803;28;20540;-74
2021/10/08 01:25:07;;;;;;;3.00;2.80;;;;;;;;;;4998107;28;20181;-73
2021/10/08 01:27:33;;;;;;;2.80;2.70;;;;;;;;;;4993775;28;20200;-73
2021/10/08 01:29:59;;;;;;;3.33;3.13;;;;;;;;;;4993980;28;20212;-74
2021/10/08 01:32:26;;;;;;;2.60;2.50;;;;;;;;;;4996240;28;20221;-73
2021/10/08 01:34:52;;;;;;;3.00;2.80;;;;;;;;;;4992719;28;20967;-73
2021/10/08 01:37:18;;;;;;;2.50;2.30;;;;;;;;;;4994409;28;20460;-73
2021/10/08 01:39:44;;;;;;;2.00;1.90;;;;;;;;;;4995651;28;20205;-73
2021/10/08 01:42:09;;;;;;;2.43;2.33;;;;;;;;;;4995917;28;20436;-74
2021/10/08 01:44:35;;;;;;;2.90;2.70;;;;;;;;;;4995102;28;20188;-73
2021/10/08 01:47:00;;;;;;;2.23;2.13;;;;;;;;;;4995268;28;20180;-73
2021/10/08 01:49:25;;;;;;;2.43;2.33;;;;;;;;;;4990976;28;20208;-73
2021/10/08 01:51:50;;;;;;;2.50;2.30;;;;;;;;;;4995777;28;20292;-73
2021/10/08 01:54:16;;;;;;;3.10;2.90;;;;;;;;;;4994159;28;20200;-74
2021/10/08 01:56:44;;;;;;;2.47;2.37;;;;;;;;;;4994336;28;20211;-74
2021/10/08 01:59:09;;;;;;;2.13;2.03;;;;;;;;;;4990906;28;20220;-74
2021/10/08 02:01:35;;;;;;;3.17;2.97;;;;;;;;;;4992632;28;20471;-73
2021/10/08 02:04:00;;;;;;;2.70;2.50;;;;;;;;;;4995438;28;20586;-74
2021/10/08 02:06:25;;;;;;;2.80;2.60;;;;;;;;;;4998090;28;20181;-74
2021/10/08 02:08:50;;;;;;;3.20;3.00;;;;;;;;;;4995274;28;20284;-74
2021/10/08 02:11:16;;;;;;;2.87;2.67;;;;;;;;;;4994455;28;20192;-74
2021/10/08 02:13:41;;;;;;;2.60;2.33;;;;;;;;;;4994900;28;20631;-74
2021/10/08 02:16:08;;;;;;;3.20;2.47;;;;;;;;;;4993725;28;20201;-73
2021/10/08 02:18:33;;;;;;;3.60;2.70;;;;;;;;;;4995195;28;20600;-74
2021/10/08 02:20:58;;;;;;;2.77;2.57;;;;;;;;;;4993716;28;20535;-74
2021/10/08 02:23:23;;;;;;;3.30;3.00;;;;;;;;;;4994637;28;20663;-74
2021/10/08 02:25:49;;;;;;;3.17;2.87;;;;;;;;;;4996842;28;20698;-73
2021/10/08 02:28:14;;;;;;;3.47;3.20;;;;;;;;;;4996136;28;20211;-74
2021/10/08 02:30:39;;;;;;;3.87;3.00;;;;;;;;;;4992590;28;20219;-74
2021/10/08 02:33:04;;;;;;;5.70;3.53;;;;;;;;;;4997317;28;20201;-74
2021/10/08 02:35:30;;;;;;;3.23;2.93;;;;;;;;;;4993168;28;20190;-74
2021/10/08 02:37:55;;;;;;;4.00;3.60;;;;;;;;;;4988623;28;20241;-74
2021/10/08 02:40:20;;;;;;;3.73;3.40;;;;;;;;;;4991119;28;20348;-74
2021/10/08 02:42:45;;;;;;;4.00;3.53;;;;;;;;;;4993701;28;20289;-74
2021/10/08 02:45:11;;;;;;;3.70;3.40;;;;;;;;;;4994599;28;20676;-72
2021/10/08 02:47:36;;;;;;;3.97;3.63;;;;;;;;;;4995713;28;20193;-72
2021/10/08 02:50:01;;;;;;;3.33;3.10;;;;;;;;;;4991936;28;20279;-73
2021/10/08 02:52:27;;;;;;;4.20;3.80;;;;;;;;;;4989011;28;20193;-73
2021/10/08 02:54:52;;;;;;;3.40;3.00;;;;;;;;;;4992305;28;20283;-74
2021/10/08 02:57:17;;;;;;;3.97;3.60;;;;;;;;;;4991278;28;20251;-73
2021/10/08 02:59:42;;;;;;;4.83;4.33;;;;;;;;;;4992954;28;20327;-74
2021/10/08 03:02:07;;;;;;;4.50;4.10;;;;;;;;;;4979238;28;20259;-74
2021/10/08 03:04:33;;;;;;;3.93;3.63;;;;;;;;;;4992094;28;20649;-74
2021/10/08 03:06:58;;;;;;;3.90;3.50;;;;;;;;;;4999433;28;20271;-74
2021/10/08 03:09:24;;;;;;;5.60;4.67;;;;;;;;;;4994895;28;20203;-74
2021/10/08 03:11:49;;;;;;;6.80;4.30;;;;;;;;;;4995978;28;20544;-71
2021/10/08 03:14:14;;;;;;;6.33;5.20;;;;;;;;;;4998213;28;20205;-71
2021/10/08 03:16:40;;;;;;;5.50;5.00;;;;;;;;;;5000385;28;20223;-71
2021/10/08 03:19:05;;;;;;;5.20;4.70;;;;;;;;;;5000174;28;20205;-74
2021/10/08 03:21:30;;;;;;;5.00;4.50;;;;;;;;;;5006287;28;20293;-74
2021/10/08 03:23:56;;;;;;;5.47;4.70;;;;;;;;;;5001308;28;20185;-74
2021/10/08 03:26:21;;;;;;;5.83;4.90;;;;;;;;;;5005140;28;20240;-74
2021/10/08 03:28:46;;;;;;;5.10;4.60;;;;;;;;;;5002098;28;20296;-73
2021/10/08 03:31:12;;;;;;;5.70;4.87;;;;;;;;;;5003382;28;20204;-74
2021/10/08 03:33:37;;;;;;;6.00;4.67;;;;;;;;;;5002894;28;20188;-73
2021/10/08 03:36:03;;;;;;;5.20;4.13;;;;;;;;;;5002077;28;20443;-73
2021/10/08 03:38:31;;;;;;;3.90;3.57;;;;;;;;;;4999613;28;20267;-72
2021/10/08 03:43:27;;;;;;;5.20;4.30;;;;;;;;;;5000443;28;20428;-73
2021/10/08 03:45:54;;;;;;;4.20;3.80;;;;;;;;;;5003788;28;20439;-73
2021/10/08 03:50:45;;;;;;;5.33;4.83;;;;;;;;;;4999133;28;20463;-72
2021/10/08 03:53:10;;;;;;;4.70;4.30;;;;;;;;;;5001592;28;20194;-72
2021/10/08 03:55:36;;;;;;;9.40;4.57;;;;;;;;;;5003452;28;20185;-72
2021/10/08 03:58:01;;;;;;;5.57;4.80;;;;;;;;;;5001803;28;20207;-72
2021/10/08 04:00:26;;;;;;;5.90;5.00;;;;;;;;;;5001145;28;20193;-72
2021/10/08 04:02:51;;;;;;;4.60;4.20;;;;;;;;;;4999339;28;20186;-72
2021/10/08 04:05:17;;;;;;;5.40;4.90;;;;;;;;;;5002198;28;20246;-72
2021/10/08 04:07:42;;;;;;;6.50;5.40;;;;;;;;;;5001996;28;20573;-72
2021/10/08 04:10:07;;;;;;;6.20;5.30;;;;;;;;;;4998221;28;20197;-72
2021/10/08 04:12:33;;;;;;;7.00;5.93;;;;;;;;;;5002709;28;20280;-73
2021/10/08 04:14:58;;;;;;;6.10;4.90;;;;;;;;;;5006226;28;20185;-72
2021/10/08 04:17:23;;;;;;;7.27;5.47;;;;;;;;;;5013238;28;20189;-72
2021/10/08 04:19:48;;;;;;;5.57;5.07;;;;;;;;;;4999320;28;20229;-72
2021/10/08 04:22:13;;;;;;;5.20;4.70;;;;;;;;;;4999112;28;20716;-72
2021/10/08 04:24:39;;;;;;;5.20;4.70;;;;;;;;;;4998485;28;21039;-72
2021/10/08 04:27:04;;;;;;;5.20;4.67;;;;;;;;;;5001786;28;20638;-73
2021/10/08 04:29:29;;;;;;;5.10;4.60;;;;;;;;;;5000586;28;20586;-73
2021/10/08 04:31:54;;;;;;;4.40;4.00;;;;;;;;;;4998728;28;20573;-72
2021/10/08 04:34:20;;;;;;;4.80;3.97;;;;;;;;;;5003289;28;20185;-72
2021/10/08 04:36:45;;;;;;;4.63;4.13;;;;;;;;;;4998782;28;20231;-72
2021/10/08 04:39:10;;;;;;;4.47;4.07;;;;;;;;;;5002147;28;20219;-72
2021/10/08 04:41:35;;;;;;;4.70;4.30;;;;;;;;;;4999433;28;20204;-73
2021/10/08 04:44:01;;;;;;;4.43;4.07;;;;;;;;;;4998047;28;20657;-73
2021/10/08 04:46:26;;;;;;;4.20;3.90;;;;;;;;;;4997945;28;20581;-73
2021/10/08 04:48:51;;;;;;;4.00;3.70;;;;;;;;;;5000952;28;20205;-72
2021/10/08 04:51:16;;;;;;;4.53;4.23;;;;;;;;;;4998913;28;20174;-72
2021/10/08 04:53:41;;;;;;;3.80;3.50;;;;;;;;;;5002025;28;20178;-72
2021/10/08 04:56:07;;;;;;;4.17;3.80;;;;;;;;;;5006445;28;20181;-73
2021/10/08 04:58:32;;;;;;;4.60;4.30;;;;;;;;;;4993716;28;20329;-72
2021/10/08 05:00:57;;;;;;;4.17;3.87;;;;;;;;;;4999090;28;20644;-72
2021/10/08 05:03:23;;;;;;;5.10;4.70;;;;;;;;;;4999920;28;20209;-72
2021/10/08 05:05:50;;;;;;;3.93;3.63;;;;;;;;;;5002035;28;20715;-72
2021/10/08 05:08:16;;;;;;;4.20;3.90;;;;;;;;;;4997788;28;20189;-72
2021/10/08 05:10:41;;;;;;;4.17;3.77;;;;;;;;;;4998461;28;20452;-73
2021/10/08 05:13:07;;;;;;;4.27;3.87;;;;;;;;;;4999756;28;20332;-72
2021/10/08 05:15:32;;;;;;;4.20;3.90;;;;;;;;;;5001168;28;20191;-72
2021/10/08 05:17:57;;;;;;;7.00;4.20;;;;;;;;;;4997883;28;20213;-72
2021/10/08 05:20:22;;;;;;;4.13;3.83;;;;;;;;;;4995414;28;20223;-72
2021/10/08 05:22:48;;;;;;;4.67;4.27;;;;;;;;;;4994497;28;20166;-72
2021/10/08 05:25:13;;;;;;;4.27;3.97;;;;;;;;;;4996502;28;20185;-72
2021/10/08 05:27:38;;;;;;;5.13;4.63;;;;;;;;;;4997517;28;20606;-73
2021/10/08 05:30:05;;;;;;;4.37;4.03;;;;;;;;;;4998570;28;20201;-73
2021/10/08 05:32:30;;;;;;;4.77;4.40;;;;;;;;;;4994849;28;20573;-72
2021/10/08 05:34:56;;;;;;;5.00;4.60;;;;;;;;;;4992501;28;20433;-72
2021/10/08 05:37:21;;;;;;;4.40;4.00;;;;;;;;;;4995761;28;20198;-73
2021/10/08 05:39:46;;;;;;;4.20;3.90;;;;;;;;;;4991751;28;20193;-72
2021/10/08 05:42:11;;;;;;;3.97;3.67;;;;;;;;;;4995414;28;20192;-72
2021/10/08 05:44:37;;;;;;;4.53;4.23;;;;;;;;;;4992722;28;20177;-73
2021/10/08 05:47:02;;;;;;;5.20;4.67;;;;;;;;;;4994754;28;20173;-73
2021/10/08 05:49:28;;;;;;;4.67;4.27;;;;;;;;;;4989982;28;20300;-74
2021/10/08 05:51:53;;;;;;;6.27;4.70;;;;;;;;;;4986816;28;20193;-73
2021/10/08 05:54:18;;;;;;;4.97;4.67;;;;;;;;;;4981548;28;20518;-73
2021/10/08 05:56:43;;;;;;;4.73;4.20;;;;;;;;;;4997339;28;20347;-73
2021/10/08 05:59:09;;;;;;;4.60;4.13;;;;;;;;;;4993362;28;20200;-73
2021/10/08 06:01:34;;;;;;;4.43;4.10;;;;;;;;;;5000144;28;20178;-73
2021/10/08 06:04:05;;;;;;;4.67;4.27;;;;;;;;;;4994083;28;20549;-73
2021/10/08 06:06:30;;;;;;;4.80;4.40;;;;;;;;;;4995019;28;20281;-72
2021/10/08 06:08:55;;;;;;;6.40;4.50;;;;;;;;;;4994753;28;20499;-73
2021/10/08 06:11:21;;;;;;;4.80;4.43;;;;;;;;;;4995273;28;20286;-73
2021/10/08 06:13:46;;;;;;;5.30;4.80;;;;;;;;;;4993176;28;20185;-72
2021/10/08 06:16:11;;;;;;;5.50;5.00;;;;;;;;;;4987584;28;20670;-73
2021/10/08 06:18:36;;;;;;;5.23;4.77;;;;;;;;;;4992410;28;20581;-72
2021/10/08 06:21:02;;;;;;;5.50;5.00;;;;;;;;;;4996135;28;20227;-73
2021/10/08 06:23:27;;;;;;;5.70;5.20;;;;;;;;;;4991588;28;20193;-72
2021/10/08 06:25:52;;;;;;;5.40;4.90;;;;;;;;;;4995575;28;20181;-73
2021/10/08 06:28:17;;;;;;;6.50;5.90;;;;;;;;;;4993430;28;20273;-73
2021/10/08 06:30:43;;;;;;;5.83;5.23;;;;;;;;;;4990487;28;20244;-72
2021/10/08 06:33:08;;;;;;;5.67;5.17;;;;;;;;;;4996340;28;20689;-72
2021/10/08 06:35:33;;;;;;;5.10;4.70;;;;;;;;;;4993496;28;20236;-72
2021/10/08 06:37:59;;;;;;;5.50;5.00;;;;;;;;;;4996877;28;20228;-73
2021/10/08 06:40:24;;;;;;;5.40;4.70;;;;;;;;;;4996633;28;20528;-73
2021/10/08 06:42:50;;;;;;;5.13;4.63;;;;;;;;;;4995366;28;20525;-73
2021/10/08 06:45:15;;;;;;;5.40;4.90;;;;;;;;;;4994996;28;20593;-73
2021/10/08 06:47:40;;;;;;;5.63;5.23;;;;;;;;;;4996174;28;20189;-73
2021/10/08 06:50:06;;;;;;;5.10;4.70;;;;;;;;;;4994070;28;20256;-73
2021/10/08 06:52:31;;;;;;;5.23;4.73;;;;;;;;;;4995031;28;20189;-73
2021/10/08 06:54:56;;;;;;;5.20;4.80;;;;;;;;;;4993013;28;20277;-73
2021/10/08 06:57:22;;;;;;;4.60;4.30;;;;;;;;;;4993148;28;20677;-73
2021/10/08 06:59:47;;;;;;;5.67;5.23;;;;;;;;;;4995721;28;20870;-73
2021/10/08 07:02:12;;;;;;;5.37;4.87;;;;;;;;;;4997502;28;20896;-73
2021/10/08 07:04:38;;;;;;;5.27;4.87;;;;;;;;;;4991203;28;20268;-73
2021/10/08 07:07:03;;;;;;;4.80;4.40;;;;;;;;;;4990711;28;20182;-72
2021/10/08 07:09:28;;;;;;;5.20;4.80;;;;;;;;;;4992363;28;20194;-73
2021/10/08 07:11:53;;;;;;;6.77;6.17;;;;;;;;;;4992533;28;20287;-73
2021/10/08 07:14:19;;;;;;;6.10;5.50;;;;;;;;;;4994722;28;20193;-74
2021/10/08 07:16:44;;;;;;;7.10;6.40;;;;;;;;;;4993926;28;20207;-74
2021/10/08 07:19:13;;;;;;;7.17;6.10;;;;;;;;;;4997472;28;20193;-73
2021/10/08 07:21:41;;;;;;;7.60;6.97;;;;;;;;;;4990419;28;20201;-73
2021/10/08 07:24:07;;;;;;;7.53;6.63;;;;;;;;;;4991476;28;20443;-74
2021/10/08 07:26:32;;;;;;;8.03;7.23;;;;;;;;;;4998098;28;20436;-73
2021/10/08 07:28:58;;;;;;;8.10;7.40;;;;;;;;;;4996225;28;20208;-72
2021/10/08 07:31:23;;;;;;;8.53;7.73;;;;;;;;;;4988220;28;20197;-72
2021/10/08 07:33:48;;;;;;;9.63;7.93;;;;;;;;;;4993422;28;20186;-73
2021/10/08 07:36:14;;;;;;;9.03;8.13;;;;;;;;;;4997276;28;20303;-72
2021/10/08 07:38:39;;;;;;;10.73;9.43;;;;;;;;;;4994409;28;20213;-72
2021/10/08 07:41:04;;;;;;;10.83;9.77;;;;;;;;;;4991757;28;20177;-72
2021/10/08 07:43:30;;;;;;;10.10;9.10;;;;;;;;;;4996507;28;20635;-73
2021/10/08 07:45:55;;;;;;;11.03;9.93;;;;;;;;;;4995626;28;20264;-72
2021/10/08 07:48:20;;;;;;;11.03;9.80;;;;;;;;;;4999614;28;20196;-72
2021/10/08 07:50:45;;;;;;;12.57;10.17;;;;;;;;;;4998116;28;20201;-72
2021/10/08 07:53:13;;;;;;;10.87;9.87;;;;;;;;;;4997991;28;20637;-73
2021/10/08 07:55:38;;;;;;;16.10;10.07;;;;;;;;;;5002052;28;20173;-73
2021/10/08 07:58:03;;;;;;;10.13;9.13;;;;;;;;;;5001750;28;21023;-72
2021/10/08 08:00:28;;;;;;;10.33;9.33;;;;;;;;;;5000916;28;20236;-72
2021/10/08 08:02:54;;;;;;;10.80;9.70;;;;;;;;;;5000892;28;20201;-73
2021/10/08 08:05:19;;;;;;;10.57;9.37;;;;;;;;;;4990744;28;20181;-73
2021/10/08 08:07:44;;;;;;;10.60;9.50;;;;;;;;;;4992910;28;20195;-73
2021/10/08 08:10:10;;;;;;;16.20;10.47;;;;;;;;;;4995219;28;20233;-74
2021/10/08 08:12:35;;;;;;;12.83;11.50;;;;;;;;;;4990587;28;20662;-73
2021/10/08 08:15:01;;;;;;;10.33;9.40;;;;;;;;;;4995367;28;20255;-73
2021/10/08 08:17:27;;;;;;;11.43;10.10;;;;;;;;;;5001856;28;20193;-73
2021/10/08 08:19:52;;;;;;;9.83;8.93;;;;;;;;;;4997162;28;20208;-74
2021/10/08 08:22:19;;;;;;;10.10;9.10;;;;;;;;;;5004022;28;20187;-74
2021/10/08 08:24:45;;;;;;;11.97;10.77;;;;;;;;;;5002694;28;20721;-74
2021/10/08 08:27:10;;;;;;;11.60;9.80;;;;;;;;;;4999839;28;20512;-75
2021/10/08 08:29:35;;;;;;;12.33;10.97;;;;;;;;;;4994300;28;20216;-74
2021/10/08 08:32:01;;;;;;;12.77;11.50;;;;;;;;;;4989599;28;20185;-76
2021/10/08 08:34:27;;;;;;;12.27;11.07;;;;;;;;;;4998877;28;20719;-72
2021/10/08 08:36:52;;;;;;;11.97;10.77;;;;;;;;;;5000481;28;20838;-74
2021/10/08 08:39:19;;;;;;;12.57;11.30;;;;;;;;;;4995959;28;20980;-73
2021/10/08 08:41:45;;;;;;;12.67;11.37;;;;;;;;;;4999742;28;20189;-76
2021/10/08 08:44:10;;;;;;;13.47;12.07;;;;;;;;;;4987557;28;20425;-74
2021/10/08 08:46:35;;;;;;;13.53;12.10;;;;;;;;;;4992476;28;20327;-74
2021/10/08 08:49:01;;;;;;;13.23;11.83;;;;;;;;;;4991439;28;20225;-73
2021/10/08 08:51:27;;;;;;;13.83;11.53;;;;;;;;;;4991383;28;20216;-73
2021/10/08 08:53:53;;;;;;;14.50;12.97;;;;;;;;;;4998974;28;20507;-72
2021/10/08 08:56:19;;;;;;;14.50;12.50;;;;;;;;;;5000923;28;20181;-73
2021/10/08 08:58:44;;;;;;;14.87;12.80;;;;;;;;;;4998632;28;20476;-73
2021/10/08 09:01:09;;;;;;;13.13;11.73;;;;;;;;;;4992548;28;20220;-72
2021/10/08 09:03:35;;;;;;;15.50;13.90;;;;;;;;;;4993928;28;20181;-73
2021/10/08 09:06:00;;;;;;;15.77;14.13;;;;;;;;;;4992645;28;20189;-72
2021/10/08 09:08:34;;;;;;;14.90;13.50;;;;;;;;;;4994095;28;20185;-72
2021/10/08 09:11:00;;;;;;;14.00;12.37;;;;;;;;;;4997994;28;20205;-74
2021/10/08 09:13:27;;;;;;;16.50;13.20;;;;;;;;;;4993431;28;20874;-73
2021/10/08 09:15:56;;;;;;;13.90;12.50;;;;;;;;;;4990082;28;20315;-72
2021/10/08 09:18:29;;;;;;;14.70;13.20;;;;;;;;;;4997295;28;20463;-73
2021/10/08 09:21:14;;;;;;;15.80;12.50;;;;;;;;;;4990903;28;20432;-73
2021/10/08 09:23:40;;;;;;;16.20;13.87;;;;;;;;;;4997906;28;20497;-73
2021/10/08 09:26:13;;;;;;;14.50;13.03;;;;;;;;;;4995700;28;20437;-72
2021/10/08 09:29:10;;;;;;;16.60;13.50;;;;;;;;;;4998331;28;20192;-73
2021/10/08 09:31:36;;;;;;;16.73;12.83;;;;;;;;;;4952817;28;20527;-72
2021/10/08 09:34:11;;;;;;;14.30;12.80;;;;;;;;;;4996683;28;21021;-73
2021/10/08 09:36:37;;;;;;;14.37;12.87;;;;;;;;;;4999649;28;20192;-73
2021/10/08 09:39:14;;;;;;;16.53;14.30;;;;;;;;;;4993486;28;20463;-73
2021/10/08 09:41:39;;;;;;;13.77;12.37;;;;;;;;;;4994333;28;20518;-73
2021/10/08 09:44:05;;;;;;;14.47;13.07;;;;;;;;;;4994731;28;20581;-74
2021/10/08 09:46:30;;;;;;;15.13;12.90;;;;;;;;;;4991972;28;20538;-73
2021/10/08 09:48:55;;;;;;;14.37;12.87;;;;;;;;;;4994728;28;20486;-73
2021/10/08 09:51:28;;;;;;;14.03;12.53;;;;;;;;;;4992661;28;20205;-73
2021/10/08 09:53:58;;;;;;;14.77;13.30;;;;;;;;;;4987680;28;20185;-73
2021/10/08 09:56:32;;;;;;;13.43;12.03;;;;;;;;;;4987376;28;20436;-73
2021/10/08 09:58:58;;;;;;;13.33;11.93;;;;;;;;;;4993441;28;20524;-73
2021/10/08 10:01:27;;;;;;;14.60;12.13;;;;;;;;;;4994053;28;20432;-73
2021/10/08 10:03:53;;;;;;;12.70;11.43;;;;;;;;;;4988901;28;20181;-72
2021/10/08 10:06:18;;;;;;;12.83;11.57;;;;;;;;;;4989082;28;20487;-73
2021/10/08 10:08:44;;;;;;;13.67;12.27;;;;;;;;;;4991585;28;20216;-73
2021/10/08 10:11:10;;;;;;;13.77;12.37;;;;;;;;;;4992398;28;20452;-74
2021/10/08 10:13:38;;;;;;;12.53;11.13;;;;;;;;;;4995410;28;20467;-73
2021/10/08 10:16:04;;;;;;;13.40;11.97;;;;;;;;;;4991221;28;20189;-74
2021/10/08 10:18:29;;;;;;;13.50;11.60;;;;;;;;;;4996196;28;20507;-73
2021/10/08 10:20:54;;;;;;;11.73;10.57;;;;;;;;;;4990967;28;20193;-73
2021/10/08 10:23:21;;;;;;;12.27;11.00;;;;;;;;;;4993780;28;20649;-74
2021/10/08 10:25:49;;;;;;;10.83;9.73;;;;;;;;;;4997828;28;20189;-74
2021/10/08 10:28:14;;;;;;;9.37;8.50;;;;;;;;;;4999302;28;20431;-73
2021/10/08 10:30:41;;;;;;;10.43;9.33;;;;;;;;;;4992415;28;20591;-73
2021/10/08 10:33:07;;;;;;;12.53;10.80;;;;;;;;;;4994040;28;20439;-74
2021/10/08 10:35:46;;;;;;;12.77;10.13;;;;;;;;;;4994582;28;20200;-73
2021/10/08 10:38:21;;;;;;;10.93;9.63;;;;;;;;;;4995092;28;21568;-74
2021/10/08 10:40:47;;;;;;;10.50;9.47;;;;;;;;;;4991540;28;20427;-73
2021/10/08 10:43:14;;;;;;;10.83;9.70;;;;;;;;;;4995441;28;20510;-74
2021/10/08 10:45:43;;;;;;;10.30;9.30;;;;;;;;;;4996152;28;21322;-73
2021/10/08 10:48:20;;;;;;;10.53;9.53;;;;;;;;;;4996297;28;20189;-74
2021/10/08 10:51:09;;;;;;;12.33;9.40;;;;;;;;;;4991747;28;20968;-74
2021/10/08 10:53:47;;;;;;;10.20;7.53;;;;;;;;;;4999726;28;20627;-73
2021/10/08 10:56:31;;;;;;;10.17;7.87;;;;;;;;;;4995637;28;20904;-74
2021/10/08 10:59:16;;;;;;;8.80;7.90;;;;;;;;;;4995303;28;20479;-74
2021/10/08 11:02:00;;;;;;;11.33;8.33;;;;;;;;;;4988142;28;20436;-74
2021/10/08 11:04:25;;;;;;;11.90;8.20;;;;;;;;;;4992934;28;20530;-73
2021/10/08 11:07:10;;;;;;;9.80;7.90;;;;;;;;;;4993376;28;20943;-73
2021/10/08 11:09:36;;;;;;;7.57;6.50;;;;;;;;;;4994681;28;20729;-73
2021/10/08 11:12:20;;;;;;;6.70;6.07;;;;;;;;;;4990391;28;20499;-73
2021/10/08 11:14:45;;;;;;;6.40;5.33;;;;;;;;;;4990191;28;20443;-74
2021/10/08 11:17:29;;;;;;;6.90;6.20;;;;;;;;;;4992337;28;20503;-73
2021/10/08 11:19:54;;;;;;;6.30;5.70;;;;;;;;;;4993732;28;20333;-73
2021/10/08 11:22:39;;;;;;;5.73;5.10;;;;;;;;;;4997899;28;20566;-73
2021/10/08 11:25:05;;;;;;;6.63;6.03;;;;;;;;;;4995703;28;20205;-73
2021/10/08 11:27:33;;;;;;;6.93;6.23;;;;;;;;;;4989901;28;21490;-74
2021/10/08 11:30:03;;;;;;;6.83;6.13;;;;;;;;;;4995859;28;20205;-74
2021/10/08 11:32:30;;;;;;;5.70;5.20;;;;;;;;;;5000071;28;20437;-74
2021/10/08 11:34:56;;;;;;;6.63;6.03;;;;;;;;;;4999547;28;20909;-73
2021/10/08 11:37:22;;;;;;;6.20;5.60;;;;;;;;;;4998623;28;20470;-74
2021/10/08 11:39:48;;;;;;;7.57;5.40;;;;;;;;;;4996351;28;20444;-74
2021/10/08 11:42:18;;;;;;;5.67;5.17;;;;;;;;;;4998402;28;20182;-73
2021/10/08 11:45:04;;;;;;;8.70;5.37;;;;;;;;;;4998683;28;20436;-73
2021/10/08 11:47:34;;;;;;;8.10;5.40;;;;;;;;;;4996796;28;20427;-74
2021/10/08 11:52:45;;;;;;;4.40;4.00;;;;;;;;;;4994089;28;20796;-74
2021/10/08 11:55:15;;;;;;;6.63;4.63;;;;;;;;;;4993589;28;20428;-73
2021/10/08 11:57:49;;;;;;;4.50;4.10;;;;;;;;;;4997408;28;20476;-73
2021/10/08 12:00:15;;;;;;;5.60;4.07;;;;;;;;;;4997424;28;20462;-74
2021/10/08 12:02:53;;;;;;;4.10;3.80;;;;;;;;;;4998246;28;20436;-73
2021/10/08 12:05:18;;;;;;;5.13;4.67;;;;;;;;;;4998479;28;20177;-73
2021/10/08 12:08:03;;;;;;;6.87;4.37;;;;;;;;;;5001214;28;20590;-74
2021/10/08 12:10:28;;;;;;;4.50;4.10;;;;;;;;;;4999576;28;20258;-73
2021/10/08 12:12:57;;;;;;;7.20;5.30;;;;;;;;;;4998191;28;20429;-74
2021/10/08 12:15:25;;;;;;;6.00;4.87;;;;;;;;;;5002783;28;20573;-75
2021/10/08 12:17:52;;;;;;;6.20;4.87;;;;;;;;;;4991222;28;20474;-74
2021/10/08 12:20:18;;;;;;;4.50;4.00;;;;;;;;;;4995479;28;20533;-73
2021/10/08 12:22:43;;;;;;;5.07;4.53;;;;;;;;;;4990083;28;20431;-73
2021/10/08 12:25:09;;;;;;;5.17;4.67;;;;;;;;;;4992737;28;20932;-73
2021/10/08 12:27:34;;;;;;;4.43;4.03;;;;;;;;;;4991995;28;20545;-74
2021/10/08 12:30:00;;;;;;;5.43;4.90;;;;;;;;;;4992181;28;20205;-73
2021/10/08 12:32:25;;;;;;;4.20;3.80;;;;;;;;;;4990750;28;20178;-73
2021/10/08 12:34:51;;;;;;;4.93;4.30;;;;;;;;;;4994030;28;20296;-72
2021/10/08 12:37:30;;;;;;;3.67;3.30;;;;;;;;;;4990700;28;20314;-73
2021/10/08 12:40:01;;;;;;;4.87;4.47;;;;;;;;;;4992886;28;20500;-73
2021/10/08 12:42:28;;;;;;;5.40;4.70;;;;;;;;;;4991426;28;20434;-73
2021/10/08 12:44:58;;;;;;;4.93;4.50;;;;;;;;;;4993995;28;20452;-73
2021/10/08 12:47:25;;;;;;;5.00;4.60;;;;;;;;;;4993603;28;20515;-73
2021/10/08 12:49:54;;;;;;;5.77;5.27;;;;;;;;;;4992247;28;20455;-73
2021/10/08 12:52:33;;;;;;;4.57;4.13;;;;;;;;;;4995189;28;20460;-73
2021/10/08 12:55:18;;;;;;;5.83;5.20;;;;;;;;;;4998322;28;20437;-73
2021/10/08 12:58:02;;;;;;;5.20;4.70;;;;;;;;;;4999594;28;20878;-73
2021/10/08 13:00:41;;;;;;;4.63;4.10;;;;;;;;;;4994478;28;20456;-73
2021/10/08 13:03:07;;;;;;;5.00;4.30;;;;;;;;;;4996072;28;20436;-74
2021/10/08 13:05:39;;;;;;;4.40;4.00;;;;;;;;;;4991381;28;20432;-74
2021/10/08 13:08:08;;;;;;;4.33;3.93;;;;;;;;;;4992044;28;20431;-74
2021/10/08 13:10:33;;;;;;;5.73;4.60;;;;;;;;;;4992869;28;20459;-73
2021/10/08 13:12:59;;;;;;;5.23;4.20;;;;;;;;;;4995124;28;20428;-74
2021/10/08 13:15:28;;;;;;;4.23;3.83;;;;;;;;;;4992123;28;20174;-75
2021/10/08 13:18:11;;;;;;;3.90;3.60;;;;;;;;;;4990407;28;20205;-74
2021/10/08 13:20:39;;;;;;;3.77;3.47;;;;;;;;;;4993382;28;21018;-74
2021/10/08 13:23:05;;;;;;;3.30;3.00;;;;;;;;;;4992284;28;20467;-74
2021/10/08 13:25:30;;;;;;;3.40;3.10;;;;;;;;;;4992931;28;20981;-75
2021/10/08 13:27:55;;;;;;;2.80;2.53;;;;;;;;;;4999641;28;20308;-74
2021/10/08 13:30:20;;;;;;;3.43;3.10;;;;;;;;;;4989736;28;20216;-75
2021/10/08 13:32:46;;;;;;;3.93;2.67;;;;;;;;;;4991900;28;20182;-75
2021/10/08 13:35:11;;;;;;;2.93;2.67;;;;;;;;;;4990523;28;21305;-75
2021/10/08 13:37:37;;;;;;;3.87;3.43;;;;;;;;;;4989584;28;20264;-75
2021/10/08 13:40:02;;;;;;;3.47;3.17;;;;;;;;;;4995528;28;20197;-74
2021/10/08 13:42:27;;;;;;;3.50;3.20;;;;;;;;;;4995108;28;20240;-74
2021/10/08 13:44:53;;;;;;;3.80;3.20;;;;;;;;;;4992622;28;20191;-74
2021/10/08 13:47:18;;;;;;;3.90;3.23;;;;;;;;;;4990393;28;20206;-74
2021/10/08 13:49:44;;;;;;;3.40;3.20;;;;;;;;;;4996207;28;20743;-74
2021/10/08 13:52:09;;;;;;;4.00;3.50;;;;;;;;;;4988618;28;20181;-75
2021/10/08 13:54:35;;;;;;;3.23;2.70;;;;;;;;;;4991845;28;20524;-74
2021/10/08 13:57:00;;;;;;;2.93;2.73;;;;;;;;;;5000098;28;20181;-74
2021/10/08 13:59:26;;;;;;;2.90;2.70;;;;;;;;;;4993380;28;20285;-74
2021/10/08 14:01:59;;;;;;;4.20;3.40;;;;;;;;;;4992650;28;20188;-74
2021/10/08 14:04:31;;;;;;;2.70;2.40;;;;;;;;;;4992964;28;20906;-74
2021/10/08 14:11:49;;;;;;;4.10;3.23;;;;;;;;;;4997059;28;20257;-74
2021/10/08 14:14:15;;;;;;;3.60;3.30;;;;;;;;;;4993171;28;20428;-74
2021/10/08 14:16:40;;;;;;;4.13;3.73;;;;;;;;;;4993583;28;20192;-73
2021/10/08 14:19:05;;;;;;;3.53;3.33;;;;;;;;;;4996533;28;20197;-73
2021/10/08 14:21:32;;;;;;;4.30;3.03;;;;;;;;;;4995232;28;20643;-73
2021/10/08 14:23:57;;;;;;;4.13;3.73;;;;;;;;;;4994209;28;20239;-73
2021/10/08 14:26:22;;;;;;;4.80;4.40;;;;;;;;;;4992214;28;20448;-73
2021/10/08 14:28:48;;;;;;;5.20;4.70;;;;;;;;;;4991641;28;20224;-74
2021/10/08 14:31:13;;;;;;;6.07;4.40;;;;;;;;;;4994080;28;20266;-74
2021/10/08 14:33:38;;;;;;;4.10;3.80;;;;;;;;;;4997294;28;20207;-73
2021/10/08 14:36:03;;;;;;;4.57;4.17;;;;;;;;;;4995323;28;20204;-73
2021/10/08 14:38:29;;;;;;;5.00;4.43;;;;;;;;;;4998227;28;20238;-73
2021/10/08 14:40:54;;;;;;;4.80;4.10;;;;;;;;;;4996890;28;21155;-73
2021/10/08 14:43:19;;;;;;;4.27;3.87;;;;;;;;;;5000209;28;20184;-74
2021/10/08 14:45:44;;;;;;;5.00;4.30;;;;;;;;;;4996604;28;20177;-74
2021/10/08 14:48:11;;;;;;;4.37;4.07;;;;;;;;;;4996105;28;20588;-73